Time;durP1;ratioP1;P1;durP2;ratioP2;P2;SDS_P1;SDS_P2;PMS_P1;PMS_P2;Temp;Humidity;BMP_temperature;BMP_pressure;BME280_temperature;BME280_humidity;BME280_pressure;Samples;Min_cycle;Max_cycle;Signal;HPM_P1;HPM_P2
2022/09/23 04:49:35;;;;;;;7.72;6.80;;;;;;;7.80;100.00;98054.20;1827985;78;21469;-61
2022/09/23 04:52:04;;;;;;;7.85;5.03;;;;;;;7.84;100.00;98056.61;1827937;78;21382;-61
2022/09/23 04:54:31;;;;;;;5.62;4.40;;;;;;;7.91;100.00;98059.80;1827703;78;20919;-61
2022/09/23 04:56:58;;;;;;;4.75;4.25;;;;;;;7.97;100.00;98046.16;1827787;78;20864;-62
2022/09/23 04:59:25;;;;;;;5.37;4.15;;;;;;;8.04;100.00;98052.01;1829244;77;20955;-61
2022/09/23 05:01:54;;;;;;;5.60;4.20;;;;;;;8.14;100.00;98045.84;1806759;77;21540;-57
2022/09/23 05:04:33;;;;;;;7.05;4.20;;;;;;;8.23;100.00;98050.87;1762726;80;21440;-59
2022/09/23 05:07:02;;;;;;;7.65;4.35;;;;;;;8.33;100.00;98050.06;1760780;79;21489;-61
2022/09/23 05:09:31;;;;;;;6.15;4.22;;;;;;;8.42;100.00;98050.55;1785569;78;21257;-59
2022/09/23 05:11:58;;;;;;;8.48;4.67;;;;;;;8.51;100.00;98052.09;1790096;78;21055;-60
2022/09/23 05:14:27;;;;;;;6.20;4.55;;;;;;;8.59;100.00;98051.53;1790568;80;21582;-58
2022/09/23 05:16:54;;;;;;;5.70;4.72;;;;;;;8.64;100.00;98043.50;1789462;80;22136;-57
2022/09/23 05:19:21;;;;;;;6.30;4.22;;;;;;;8.70;100.00;98050.39;1789930;80;21480;-60
2022/09/23 05:21:48;;;;;;;4.72;4.05;;;;;;;8.75;100.00;98049.03;1788738;80;21033;-58
2022/09/23 05:24:16;;;;;;;5.62;4.08;;;;;;;8.81;100.00;98047.38;1789194;80;21093;-59
2022/09/23 05:26:43;;;;;;;5.12;4.53;;;;;;;8.84;100.00;98042.02;1789495;80;21117;-59
2022/09/23 05:29:11;;;;;;;5.25;4.28;;;;;;;8.84;100.00;98046.83;1788929;78;21097;-60
2022/09/23 05:31:39;;;;;;;4.40;3.98;;;;;;;8.85;100.00;98051.64;1792104;78;21413;-60
2022/09/23 05:34:10;;;;;;;8.78;4.47;;;;;;;8.90;100.00;98052.95;1779838;79;21342;-58
2022/09/23 05:36:39;;;;;;;5.53;4.40;;;;;;;8.92;100.00;98054.80;1810548;78;21045;-59
2022/09/23 05:39:07;;;;;;;5.55;4.60;;;;;;;8.93;100.00;98059.05;1796249;78;21024;-58
2022/09/23 05:41:35;;;;;;;7.53;4.33;;;;;;;8.91;100.00;98062.01;1778498;79;21037;-56
2022/09/23 05:44:02;;;;;;;4.95;4.12;;;;;;;8.90;100.00;98059.63;1809787;79;21006;-57
2022/09/23 05:46:34;;;;;;;4.42;4.03;;;;;;;8.91;100.00;98061.20;1790871;79;20975;-58
2022/09/23 05:49:07;;;;;;;5.92;4.00;;;;;;;8.91;100.00;98055.86;1767593;80;21554;-58
2022/09/23 05:51:42;;;;;;;4.70;4.17;;;;;;;8.88;100.00;98059.08;1793540;78;21491;-57
2022/09/23 05:54:13;;;;;;;6.72;4.50;;;;;;;8.82;100.00;98062.88;1763052;80;21229;-58
2022/09/23 05:56:40;;;;;;;5.62;3.90;;;;;;;8.80;100.00;98062.35;1783042;79;20919;-59
2022/09/23 05:59:09;;;;;;;5.55;3.87;;;;;;;8.78;100.00;98066.64;1788761;79;20920;-58
2022/09/23 06:01:38;;;;;;;5.80;4.22;;;;;;;8.77;100.00;98074.91;1819790;78;20910;-58
2022/09/23 06:04:11;;;;;;;6.05;3.98;;;;;;;8.75;100.00;98076.54;1814577;78;21101;-59
2022/09/23 06:06:46;;;;;;;8.30;4.15;;;;;;;8.74;100.00;98073.59;1803554;78;21073;-59
2022/09/23 06:09:15;;;;;;;3.95;3.65;;;;;;;8.74;100.00;98072.79;1802603;78;20975;-59
2022/09/23 06:11:43;;;;;;;6.22;3.87;;;;;;;8.78;100.00;98079.20;1816975;78;20876;-59
2022/09/23 06:14:12;;;;;;;4.55;3.87;;;;;;;8.79;100.00;98069.56;1818451;77;20951;-61
2022/09/23 06:16:42;;;;;;;6.12;3.80;;;;;;;8.84;100.00;98079.41;1808221;78;21038;-59
2022/09/23 06:19:10;;;;;;;5.60;4.17;;;;;;;8.91;100.00;98074.56;1826503;78;21097;-59
2022/09/23 06:21:38;;;;;;;7.22;4.28;;;;;;;8.95;100.00;98080.94;1828853;78;20923;-60
2022/09/23 06:24:07;;;;;;;4.28;3.80;;;;;;;8.96;100.00;98077.20;1817088;78;21171;-59
2022/09/23 06:26:37;;;;;;;3.75;3.42;;;;;;;9.01;100.00;98080.37;1820400;78;21497;-57
2022/09/23 06:29:10;;;;;;;4.53;3.55;;;;;;;9.08;100.00;98085.67;1808209;78;20994;-63
2022/09/23 06:31:43;;;;;;;5.42;3.52;;;;;;;9.15;100.00;98083.48;1818512;78;20964;-65
2022/09/23 06:34:13;;;;;;;3.52;3.22;;;;;;;9.24;100.00;98083.68;1818398;78;21011;-59
2022/09/23 06:36:41;;;;;;;3.50;2.65;;;;;;;9.25;100.00;98086.09;1815082;78;21001;-64
2022/09/23 06:39:09;;;;;;;5.00;3.05;;;;;;;9.26;100.00;98085.00;1816021;78;21042;-63
2022/09/23 06:41:42;;;;;;;3.83;3.20;;;;;;;9.29;100.00;98081.78;1817890;78;21022;-59
2022/09/23 06:44:13;;;;;;;4.37;3.40;;;;;;;9.32;100.00;98085.77;1797036;78;21184;-58
2022/09/23 06:46:50;;;;;;;4.15;2.87;;;;;;;9.31;100.00;98088.16;1816121;78;20927;-60
2022/09/23 06:49:20;;;;;;;3.10;2.80;;;;;;;9.30;100.00;98088.70;1783916;78;20965;-61
2022/09/23 06:51:48;;;;;;;3.75;3.20;;;;;;;9.31;100.00;98089.50;1820866;78;21484;-60
2022/09/23 06:54:15;;;;;;;5.72;3.70;;;;;;;9.31;100.00;98090.30;1819569;78;21087;-60
2022/09/23 06:56:46;;;;;;;4.50;3.47;;;;;;;9.26;99.89;98088.20;1819672;78;21205;-61
2022/09/23 06:59:15;;;;;;;3.25;2.95;;;;;;;9.26;99.10;98093.02;1818101;78;21691;-58
2022/09/23 07:01:41;;;;;;;3.47;3.00;;;;;;;9.22;99.50;98087.98;1816827;78;20896;-60
2022/09/23 07:04:09;;;;;;;3.77;2.92;;;;;;;9.23;99.90;98096.23;1819928;78;21038;-61
2022/09/23 07:06:38;;;;;;;4.15;3.35;;;;;;;9.21;98.93;98090.38;1819609;78;20974;-62
2022/09/23 07:09:07;;;;;;;4.87;3.60;;;;;;;9.18;98.91;98089.62;1819009;78;21312;-61
2022/09/23 07:11:34;;;;;;;5.87;3.20;;;;;;;9.21;99.15;98097.63;1817628;78;20863;-62
2022/09/23 07:14:01;;;;;;;3.83;3.45;;;;;;;9.22;98.50;98095.19;1821936;78;21514;-61
2022/09/23 07:16:29;;;;;;;5.15;3.42;;;;;;;9.21;98.53;98093.05;1812748;78;20894;-63
2022/09/23 07:18:57;;;;;;;3.42;3.12;;;;;;;9.21;98.55;98090.94;1811562;78;20950;-61
2022/09/23 07:21:24;;;;;;;3.77;3.47;;;;;;;9.18;97.86;98096.30;1820389;78;21288;-60
2022/09/23 07:23:51;;;;;;;5.37;3.55;;;;;;;9.16;97.54;98103.77;1819385;78;20878;-63
2022/09/23 07:26:19;;;;;;;4.40;3.40;;;;;;;9.12;97.41;98096.06;1818406;78;20996;-62
2022/09/23 07:28:46;;;;;;;6.95;2.90;;;;;;;9.11;98.01;98098.48;1820024;77;21021;-61
2022/09/23 07:31:15;;;;;;;3.65;3.27;;;;;;;9.17;98.38;98104.05;1823615;77;21049;-61
2022/09/23 07:33:43;;;;;;;3.35;2.90;;;;;;;9.23;98.55;98101.58;1810706;77;21880;-61
2022/09/23 07:36:16;;;;;;;3.83;3.42;;;;;;;9.27;98.09;98095.16;1815440;78;20945;-63
2022/09/23 07:38:43;;;;;;;3.85;3.08;;;;;;;9.36;98.01;98095.63;1820070;78;21071;-63
2022/09/23 07:41:17;;;;;;;3.72;3.40;;;;;;;9.39;97.10;98092.39;1816702;78;20901;-61
2022/09/23 07:43:48;;;;;;;5.10;3.22;;;;;;;9.37;97.07;98094.52;1811138;78;21560;-58
2022/09/23 07:46:17;;;;;;;6.75;3.33;;;;;;;9.45;97.38;98096.61;1804549;77;21231;-58
2022/09/23 07:48:46;;;;;;;6.20;3.70;;;;;;;9.53;97.17;98095.22;1778457;78;21013;-58
2022/09/23 07:51:19;;;;;;;5.28;3.35;;;;;;;9.61;96.94;98093.25;1786692;80;20984;-63
2022/09/23 07:53:48;;;;;;;5.15;3.27;;;;;;;9.62;96.03;98086.31;1778582;79;21670;-58
2022/09/23 07:56:17;;;;;;;5.25;3.70;;;;;;;9.62;96.25;98090.85;1789747;78;20930;-59
2022/09/23 07:58:45;;;;;;;3.55;3.25;;;;;;;9.56;94.50;98091.42;1790620;78;21129;-61
2022/09/23 08:01:13;;;;;;;3.72;3.30;;;;;;;9.49;94.88;98091.52;1796603;78;21404;-62
2022/09/23 08:03:40;;;;;;;5.03;3.90;;;;;;;9.49;95.38;98089.62;1798521;78;21042;-62
2022/09/23 08:06:11;;;;;;;3.90;3.60;;;;;;;9.57;95.85;98090.36;1792648;78;20938;-60
2022/09/23 08:08:42;;;;;;;4.53;3.17;;;;;;;9.65;95.10;98088.96;1788041;78;20922;-58
2022/09/23 08:11:10;;;;;;;7.15;3.65;;;;;;;9.68;94.76;98091.62;1799904;79;21221;-62
2022/09/23 08:13:38;;;;;;;4.00;3.50;;;;;;;9.73;95.20;98095.02;1768470;79;21013;-60
2022/09/23 08:16:05;;;;;;;5.40;4.17;;;;;;;9.83;95.21;98095.47;1779961;78;21494;-59
2022/09/23 08:18:34;;;;;;;4.85;3.70;;;;;;;9.92;94.77;98098.58;1780999;79;21048;-60
2022/09/23 08:21:01;;;;;;;7.08;3.70;;;;;;;9.95;94.13;98096.69;1780283;78;21101;-59
2022/09/23 08:23:32;;;;;;;5.20;3.62;;;;;;;9.94;94.34;98098.32;1770303;79;21234;-57
2022/09/23 08:26:05;;;;;;;5.42;3.70;;;;;;;9.99;94.64;98091.02;1794276;78;20926;-61
2022/09/23 08:28:37;;;;;;;5.00;3.87;;;;;;;10.07;93.94;98098.44;1791987;78;20985;-59
2022/09/23 08:31:01;;;;;;;4.05;3.20;;;;;;;10.15;94.06;98099.73;1783261;78;21023;-57
2022/09/23 08:33:28;;;;;;;4.47;3.75;;;;;;;10.18;92.51;98095.13;1775708;80;21110;-60
2022/09/23 08:36:01;;;;;;;4.60;3.12;;;;;;;10.14;91.78;98098.13;1776518;78;21101;-54
2022/09/23 08:38:32;;;;;;;6.03;3.30;;;;;;;10.08;91.47;98097.34;1797943;78;21461;-56
2022/09/23 08:41:33;;;;;;;5.28;3.30;;;;;;;10.04;91.82;98098.19;1781439;78;20922;-58
2022/09/23 08:44:15;;;;;;;5.15;3.30;;;;;;;9.98;91.67;98100.14;1775034;79;20977;-54
2022/09/23 08:46:51;;;;;;;3.47;2.95;;;;;;;10.05;92.17;98102.48;1773394;78;21112;-56
2022/09/23 08:49:24;;;;;;;4.60;2.90;;;;;;;10.13;91.66;98101.88;1809413;79;21093;-55
2022/09/23 08:51:53;;;;;;;3.62;2.85;;;;;;;10.17;91.43;98095.66;1809207;78;21051;-56
2022/09/23 08:54:21;;;;;;;4.37;2.77;;;;;;;10.25;91.07;98091.56;1808249;79;21102;-56
2022/09/23 08:56:51;;;;;;;5.60;3.20;;;;;;;10.32;91.03;98100.05;1799098;77;20965;-56
2022/09/23 08:59:27;;;;;;;6.25;3.40;;;;;;;10.31;89.90;98102.48;1794010;79;20971;-55
2022/09/23 09:02:05;;;;;;;4.33;3.10;;;;;;;10.26;90.16;98099.87;1760551;81;23146;-56
2022/09/23 09:04:39;;;;;;;3.87;2.92;;;;;;;10.28;90.81;98093.68;1755220;81;21113;-55
2022/09/23 09:07:12;;;;;;;3.95;3.50;;;;;;;10.39;90.99;98095.15;1765261;81;21378;-57
2022/09/23 09:09:52;;;;;;;5.50;3.50;;;;;;;10.54;91.02;98089.62;1761561;79;21018;-57
2022/09/23 09:12:55;;;;;;;4.40;3.20;;;;;;;10.68;89.70;98094.52;1768800;81;21036;-56
2022/09/23 09:15:27;;;;;;;5.28;3.30;;;;;;;10.71;88.09;98095.30;1725407;82;21432;-55
2022/09/23 09:18:02;;;;;;;6.12;3.17;;;;;;;10.66;87.24;98091.88;1753879;81;21322;-55
2022/09/23 09:21:08;;;;;;;2.77;2.58;;;;;;;10.58;87.36;98091.97;1752861;80;28850;-54
2022/09/23 09:23:58;;;;;;;3.60;3.08;;;;;;;10.55;87.63;98095.22;1737817;80;21580;-55
2022/09/23 09:26:32;;;;;;;3.55;3.25;;;;;;;10.60;87.64;98085.00;1741768;80;21126;-55
2022/09/23 09:29:17;;;;;;;4.72;3.67;;;;;;;10.63;87.47;98091.91;1750383;80;21210;-55
2022/09/23 09:31:48;;;;;;;4.20;3.65;;;;;;;10.64;87.90;98093.52;1749756;81;21024;-54
2022/09/23 09:34:35;;;;;;;4.03;2.87;;;;;;;10.69;87.88;98090.74;1751813;81;21070;-54
2022/09/23 09:37:22;;;;;;;3.30;3.00;;;;;;;10.70;86.87;98084.31;1756357;81;20954;-54
2022/09/23 09:39:50;;;;;;;5.42;3.40;;;;;;;10.67;86.87;98088.90;1750646;81;21515;-54
2022/09/23 09:42:39;;;;;;;6.55;3.33;;;;;;;10.68;87.36;98087.83;1812016;79;21240;-54
2022/09/23 09:45:39;;;;;;;3.83;2.70;;;;;;;10.71;87.10;98095.30;1808706;79;21092;-55
2022/09/23 09:48:16;;;;;;;4.58;3.27;;;;;;;10.73;86.89;98095.80;1813277;78;21004;-56
2022/09/23 09:50:52;;;;;;;4.85;2.92;;;;;;;10.81;87.41;98092.46;1806639;78;20937;-54
2022/09/23 09:53:26;;;;;;;4.65;2.98;;;;;;;10.86;86.10;98091.59;1799049;77;21726;-56
2022/09/23 09:56:14;;;;;;;3.35;2.98;;;;;;;10.88;85.28;98094.23;1797812;77;21673;-56
2022/09/23 09:58:55;;;;;;;3.17;2.30;;;;;;;10.95;85.14;98090.66;1806881;78;21426;-57
2022/09/23 10:01:30;;;;;;;3.55;2.40;;;;;;;11.02;85.22;98084.15;1802718;77;21031;-56
2022/09/23 10:04:00;;;;;;;3.60;2.60;;;;;;;11.09;83.49;98085.92;1792022;79;27087;-55
2022/09/23 10:09:18;;;;;;;3.37;3.00;;;;;;;11.17;82.83;98085.25;1782357;80;21232;-57
2022/09/23 10:12:17;;;;;;;3.83;2.40;;;;;;;11.30;83.37;98081.84;1782535;79;21094;-56
2022/09/23 10:14:45;;;;;;;3.50;2.67;;;;;;;11.41;81.95;98078.70;1782790;79;21078;-53
2022/09/23 10:17:21;;;;;;;3.15;2.80;;;;;;;11.48;82.15;98068.94;1804658;78;20963;-57
2022/09/23 10:20:02;;;;;;;3.02;2.60;;;;;;;11.62;82.71;98073.25;1805539;78;21128;-56
2022/09/23 10:22:38;;;;;;;3.08;2.52;;;;;;;11.72;82.51;98069.62;1812636;77;21389;-58
2022/09/23 10:25:25;;;;;;;7.72;2.40;;;;;;;11.81;81.75;98069.19;1815665;78;21031;-57
2022/09/23 10:27:52;;;;;;;3.60;2.77;;;;;;;11.80;79.78;98063.56;1815237;79;22106;-57
2022/09/23 10:30:27;;;;;;;2.65;2.45;;;;;;;11.67;79.74;98064.31;1824498;77;21450;-57
2022/09/23 10:32:56;;;;;;;4.08;2.50;;;;;;;11.64;80.16;98064.89;1809101;78;21447;-57
2022/09/23 10:38:02;;;;;;;2.62;2.30;;;;;;;11.58;78.70;98058.05;1724232;81;21513;-57
2022/09/23 10:47:10;;;;;;;4.03;2.30;;;;;;;11.62;79.36;98053.67;1705322;83;21487;-57
2022/09/23 10:49:57;;;;;;;3.92;2.40;;;;;;;11.72;77.67;98045.48;1727836;81;21246;-56
2022/09/23 10:52:57;;;;;;;3.45;2.20;;;;;;;11.72;77.68;98049.50;1711419;81;20955;-57
2022/09/23 10:55:41;;;;;;;4.33;2.25;;;;;;;11.72;77.96;98045.48;1721639;83;21095;-57
2022/09/23 10:58:25;;;;;;;3.55;1.90;;;;;;;11.76;76.73;98047.81;1697874;81;20955;-57
2022/09/23 11:01:19;;;;;;;3.25;2.00;;;;;;;11.82;76.83;98037.25;1708697;83;21584;-57
2022/09/23 11:04:03;;;;;;;2.70;2.10;;;;;;;11.94;77.07;98037.53;1690559;84;21274;-57
2022/09/23 11:06:59;;;;;;;3.50;1.80;;;;;;;11.97;75.22;98034.27;1669462;84;20995;-57
2022/09/23 11:10:07;;;;;;;2.60;1.97;;;;;;;11.99;75.45;98031.27;1694421;81;20975;-56
2022/09/23 11:12:58;;;;;;;2.50;1.90;;;;;;;12.10;74.85;98024.09;1711464;83;21754;-58
2022/09/23 11:15:45;;;;;;;2.35;2.08;;;;;;;12.25;74.46;98029.14;1720769;83;21106;-57
2022/09/23 11:18:30;;;;;;;2.08;1.87;;;;;;;12.26;73.94;98025.38;1719247;83;21221;-55
2022/09/23 11:21:24;;;;;;;3.72;1.98;;;;;;;12.25;73.48;98016.25;1708677;81;21177;-56
2022/09/23 11:24:32;;;;;;;2.65;1.67;;;;;;;12.29;73.19;98013.23;1713051;81;21075;-56
2022/09/23 11:27:11;;;;;;;4.50;1.70;;;;;;;12.36;72.78;98015.73;1720236;81;21111;-57
2022/09/23 11:30:14;;;;;;;3.25;1.50;;;;;;;12.45;71.10;98016.39;1729927;81;20964;-59
2022/09/23 11:33:12;;;;;;;1.70;1.52;;;;;;;12.54;68.10;98010.55;1754075;80;21868;-57
2022/09/23 11:35:59;;;;;;;1.50;1.40;;;;;;;12.57;68.74;97997.31;1745019;81;20978;-56
2022/09/23 11:38:43;;;;;;;2.85;1.70;;;;;;;12.81;68.46;97997.05;1717133;82;20963;-55
2022/09/23 11:41:25;;;;;;;2.17;1.70;;;;;;;13.14;68.17;97997.09;1754022;81;21026;-56
2022/09/23 11:44:02;;;;;;;2.42;1.30;;;;;;;13.51;66.50;97993.99;1710585;83;21032;-54
2022/09/23 11:46:44;;;;;;;2.35;1.45;;;;;;;13.63;62.93;97984.80;1714748;81;21776;-55
2022/09/23 11:49:25;;;;;;;2.35;1.50;;;;;;;13.50;64.35;97977.59;1718780;81;21094;-54
2022/09/23 11:52:10;;;;;;;2.87;2.58;;;;;;;13.43;64.94;97981.27;1722354;81;21009;-53
2022/09/23 11:54:59;;;;;;;2.90;1.63;;;;;;;13.52;63.89;97982.11;1732054;81;21085;-55
2022/09/23 11:57:52;;;;;;;2.10;1.50;;;;;;;13.94;63.92;97974.54;1689193;84;21086;-59
2022/09/23 12:00:24;;;;;;;2.30;1.35;;;;;;;14.26;60.01;97975.48;1727605;81;21310;-58
2022/09/23 12:03:24;;;;;;;1.57;1.17;;;;;;;14.32;60.62;97972.91;1748412;81;20963;-55
2022/09/23 12:06:00;;;;;;;1.37;1.20;;;;;;;14.30;59.05;97979.97;1734106;81;21101;-56
2022/09/23 12:08:31;;;;;;;1.32;1.22;;;;;;;14.02;58.32;97980.48;1721948;83;20963;-56
2022/09/23 12:11:20;;;;;;;1.90;1.10;;;;;;;13.69;58.94;97976.81;1725261;81;21089;-55
2022/09/23 12:14:00;;;;;;;2.12;1.30;;;;;;;13.52;60.15;97978.07;1713448;81;21045;-56
2022/09/23 12:17:03;;;;;;;1.42;1.10;;;;;;;13.44;59.22;97981.53;1722470;81;21028;-55
2022/09/23 12:19:50;;;;;;;2.80;1.25;;;;;;;13.40;60.00;97980.53;1719785;81;21090;-56
2022/09/23 12:22:24;;;;;;;1.92;1.37;;;;;;;13.29;61.27;97979.22;1724773;81;21142;-58
2022/09/23 12:25:36;;;;;;;1.12;1.02;;;;;;;13.25;61.68;97981.48;1718298;83;21055;-56
2022/09/23 12:28:17;;;;;;;1.20;1.05;;;;;;;13.12;61.01;97975.06;1716031;81;21738;-56
2022/09/23 12:30:47;;;;;;;1.30;1.20;;;;;;;12.86;61.77;97976.20;1716121;81;21077;-54
2022/09/23 12:33:26;;;;;;;1.35;1.25;;;;;;;12.67;63.01;97978.25;1722353;81;21015;-54
2022/09/23 12:35:57;;;;;;;1.30;0.90;;;;;;;12.57;64.24;97974.48;1706489;81;21009;-55
2022/09/23 12:38:37;;;;;;;0.65;0.60;;;;;;;12.49;61.43;97973.04;1709495;81;21024;-55
2022/09/23 12:41:32;;;;;;;2.98;0.90;;;;;;;12.39;60.73;97966.56;1687190;83;21728;-57
2022/09/23 12:44:12;;;;;;;0.60;0.60;;;;;;;12.31;59.45;97964.84;1694885;83;20964;-56
2022/09/23 12:47:23;;;;;;;1.40;0.90;;;;;;;12.24;58.35;97960.97;1677824;83;21031;-59
2022/09/23 12:49:49;;;;;;;2.17;0.72;;;;;;;12.18;58.86;97971.02;1682017;83;21537;-56
2022/09/23 12:52:25;;;;;;;1.50;1.00;;;;;;;12.16;60.12;97965.16;1684789;85;21044;-57
2022/09/23 12:54:58;;;;;;;1.25;1.10;;;;;;;12.18;59.10;97967.53;1684820;83;21384;-58
2022/09/23 12:57:39;;;;;;;1.35;0.90;;;;;;;12.19;58.69;97965.91;1657722;84;20892;-53
2022/09/23 13:00:12;;;;;;;2.12;0.95;;;;;;;12.48;57.46;97960.72;1658458;86;21043;-54
2022/09/23 13:08:40;;;;;;;1.75;1.40;;;;;;;13.76;55.22;97955.38;1649782;84;21786;-57
2022/09/23 13:11:21;;;;;;;1.82;1.50;;;;;;;13.73;53.67;97967.01;1717378;82;21090;-56
2022/09/23 13:13:48;;;;;;;2.62;2.08;;;;;;;13.53;54.95;97965.42;1676160;84;21053;-57
2022/09/23 13:16:34;;;;;;;1.77;1.40;;;;;;;13.35;56.24;97961.06;1685435;84;21090;-55
2022/09/23 13:19:03;;;;;;;3.12;1.57;;;;;;;13.22;56.77;97956.54;1685457;85;21024;-57
2022/09/23 13:21:49;;;;;;;3.80;1.30;;;;;;;13.13;57.28;97961.88;1685783;84;21234;-56
2022/09/23 13:24:28;;;;;;;1.87;1.40;;;;;;;13.04;57.36;97958.31;1685678;85;20941;-56
2022/09/23 13:27:00;;;;;;;2.17;1.50;;;;;;;12.91;57.95;97952.44;1685283;85;21076;-56
2022/09/23 13:29:43;;;;;;;1.65;1.40;;;;;;;12.78;58.27;97961.36;1684767;84;21071;-56
2022/09/23 13:32:13;;;;;;;2.37;1.30;;;;;;;12.62;58.37;97957.45;1684515;84;21025;-56
2022/09/23 13:34:43;;;;;;;3.95;1.50;;;;;;;12.47;59.66;97967.98;1685338;85;21123;-57
2022/09/23 13:37:21;;;;;;;2.37;1.32;;;;;;;12.30;62.93;97981.23;1702300;81;21013;-57
2022/09/23 13:39:48;;;;;;;3.90;1.30;;;;;;;12.03;66.14;97984.77;1755991;81;20959;-58
2022/09/23 13:42:20;;;;;;;1.52;1.20;;;;;;;11.68;70.96;98005.59;1756004;81;20919;-58
2022/09/23 13:44:48;;;;;;;1.45;1.30;;;;;;;11.34;73.86;98007.76;1755438;81;20935;-58
2022/09/23 13:47:15;;;;;;;1.57;1.35;;;;;;;10.92;77.75;98008.18;1741716;81;21114;-57
2022/09/23 13:49:42;;;;;;;1.40;1.30;;;;;;;10.53;79.94;98009.00;1752622;80;21453;-58
2022/09/23 13:52:28;;;;;;;1.60;1.10;;;;;;;10.23;81.69;98010.75;1754786;80;21070;-57
2022/09/23 13:54:55;;;;;;;1.42;1.20;;;;;;;10.04;82.29;98004.53;1757132;81;20861;-56
2022/09/23 13:57:33;;;;;;;1.67;1.45;;;;;;;9.98;82.89;97997.66;1757663;81;20867;-57
2022/09/23 14:00:14;;;;;;;6.30;1.80;;;;;;;10.00;83.79;98000.31;1757668;81;21235;-57
2022/09/23 14:02:45;;;;;;;1.80;1.40;;;;;;;10.15;84.10;98000.70;1756532;81;20911;-56
2022/09/23 14:05:15;;;;;;;1.87;1.50;;;;;;;10.30;85.40;97994.60;1757162;81;20927;-57
2022/09/23 14:07:42;;;;;;;2.27;1.40;;;;;;;10.45;85.11;97992.27;1756872;81;20907;-57
2022/09/23 14:10:14;;;;;;;2.35;1.47;;;;;;;10.76;85.40;97978.66;1756592;81;21022;-58
2022/09/23 14:12:42;;;;;;;2.65;1.50;;;;;;;10.97;84.85;97973.23;1756913;81;21130;-56
2022/09/23 14:15:17;;;;;;;1.55;1.30;;;;;;;11.02;84.17;97975.06;1756815;81;21054;-55
2022/09/23 14:17:49;;;;;;;3.33;1.57;;;;;;;11.00;84.25;97969.17;1749078;81;21014;-56
2022/09/23 14:20:16;;;;;;;2.25;1.30;;;;;;;11.08;84.59;97970.40;1724417;83;20951;-56
2022/09/23 14:22:44;;;;;;;2.45;1.85;;;;;;;11.15;83.82;97966.25;1757006;81;20843;-56
2022/09/23 14:25:16;;;;;;;2.70;1.60;;;;;;;11.18;83.94;97960.85;1757615;81;20899;-56
2022/09/23 14:27:45;;;;;;;1.82;1.60;;;;;;;11.14;83.63;97960.63;1757475;81;20839;-56
2022/09/23 14:30:19;;;;;;;1.90;1.50;;;;;;;11.09;82.85;97962.62;1757526;81;20907;-56
2022/09/23 14:32:46;;;;;;;3.27;1.40;;;;;;;11.03;82.96;97963.78;1757853;81;21410;-58
2022/09/23 14:35:24;;;;;;;3.02;1.70;;;;;;;11.06;83.03;97963.20;1757172;81;20915;-56
2022/09/23 14:41:14;;;;;;;2.35;1.45;;;;;;;11.69;80.60;97957.52;1728482;82;21431;-56
2022/09/23 14:43:24;;;;;;;1.72;1.40;;;;;;;12.18;79.98;97965.64;1708854;83;20996;-57
2022/09/23 14:45:57;;;;;;;1.70;1.10;;;;;;;12.66;77.78;97953.84;1746863;81;20956;-56
2022/09/23 14:48:29;;;;;;;1.37;1.27;;;;;;;13.07;75.87;97959.08;1746824;81;20903;-56
2022/09/23 14:51:06;;;;;;;2.25;1.30;;;;;;;13.49;71.76;97957.19;1745677;82;21123;-57
2022/09/23 14:53:42;;;;;;;3.58;1.00;;;;;;;13.80;69.86;97957.16;1738888;82;21408;-58
2022/09/23 14:56:20;;;;;;;1.52;1.20;;;;;;;14.04;69.14;97952.69;1739259;81;20880;-57
2022/09/23 14:58:57;;;;;;;1.80;1.30;;;;;;;14.22;67.89;97954.34;1730217;82;21010;-58
2022/09/23 15:01:35;;;;;;;1.70;1.27;;;;;;;14.08;65.33;97956.36;1724439;83;21028;-58
2022/09/23 15:04:18;;;;;;;3.05;1.40;;;;;;;13.69;66.50;97962.02;1689592;85;21917;-58
2022/09/23 15:07:00;;;;;;;1.47;1.22;;;;;;;13.36;66.88;97952.67;1723156;83;20927;-57
2022/09/23 15:09:37;;;;;;;4.67;1.60;;;;;;;13.09;67.60;97956.08;1689688;85;20931;-58
2022/09/23 15:12:13;;;;;;;4.03;1.40;;;;;;;12.89;69.02;97951.95;1682738;85;20945;-58
2022/09/23 15:14:45;;;;;;;1.45;1.35;;;;;;;12.71;68.90;97948.90;1739441;82;21468;-56
2022/09/23 15:17:28;;;;;;;2.25;1.30;;;;;;;12.47;70.10;97951.86;1739183;82;21791;-57
2022/09/23 15:20:05;;;;;;;1.70;1.40;;;;;;;12.26;70.95;97958.77;1738963;82;20836;-56
2022/09/23 15:22:41;;;;;;;2.35;1.40;;;;;;;12.02;71.75;97953.64;1738356;82;21356;-56
2022/09/23 15:25:20;;;;;;;1.50;1.40;;;;;;;11.86;72.66;97952.36;1739002;82;21430;-56
2022/09/23 15:28:14;;;;;;;1.82;1.37;;;;;;;11.71;73.63;97958.55;1739001;82;20958;-56
2022/09/23 15:30:42;;;;;;;1.57;1.47;;;;;;;11.57;74.81;97966.57;1739016;82;21114;-57
2022/09/23 15:33:15;;;;;;;2.52;1.50;;;;;;;11.40;76.11;97961.78;1687921;84;21498;-56
2022/09/23 15:35:45;;;;;;;2.90;1.72;;;;;;;11.32;76.89;97961.68;1718186;83;20885;-56
2022/09/23 15:38:12;;;;;;;2.70;1.92;;;;;;;11.28;77.79;97962.02;1718122;83;20920;-56
2022/09/23 15:40:40;;;;;;;2.12;1.82;;;;;;;11.26;78.09;97964.21;1718278;83;20940;-56
2022/09/23 15:43:23;;;;;;;2.00;1.80;;;;;;;11.19;78.38;97959.20;1712794;83;22191;-56
2022/09/23 15:45:55;;;;;;;3.42;2.30;;;;;;;11.07;78.33;97956.77;1689100;84;20959;-56
2022/09/23 15:48:33;;;;;;;2.85;2.45;;;;;;;10.96;79.06;97959.60;1689374;85;21372;-56
2022/09/23 15:51:03;;;;;;;4.22;2.15;;;;;;;10.90;79.77;97962.09;1704157;83;20944;-57
2022/09/23 15:53:31;;;;;;;3.00;2.70;;;;;;;10.82;80.47;97962.78;1718201;83;20901;-57
